AGGH

Honiara International Airport

Honiara, Solomon Islands
METAR AGGH 220600Z 00000KT 9999 HZ FEW016 OVC100 29/24 Q1005
Observed Flight Rules
Apr-22 @ 06:00 UTC (55 minutes ago) Visual Flight Rules
Visibility Clouds Conditions
10,000+ meters
  • Few at 1,600' AGL
  • Overcast at 10,000' AGL
  • Haze
Temperatures Readings
Current 29°C / 84°F
Dewpoint 24°C / 75°F
Humidity 74%
Altimeter 29.68" Hg
Pressure 1005 hPa
Elevation 9
METAR AGGH 220600Z 00000KT 9999 HZ FEW016 OVC100 29/24 Q1005
Observed Flight Rules
Apr-22 @ 06:00 UTC
(55 minutes ago)
VFR
Clouds
  • Few at 1,600' AGL
  • Overcast at 10,000' AGL
Conditions
  • Haze
Temperature Dewpoint
29°C / 84°F 24°C / 75°F
Humidity Altimeter Pressure
74% 29.68" Hg 1005 hPa